sensor_id;sensor_type;location;lat;lon;timestamp;noise_LAeq;noise_LA_min;noise_LA_max;noise_LA01;noise_LA95
66888;Laerm;67239;51.680;5.976;2023-02-14T00:01:21;41.54;35.04;54.44;;
66888;Laerm;67239;51.680;5.976;2023-02-14T00:03:48;55.57;35.57;73.92;;
66888;Laerm;67239;51.680;5.976;2023-02-14T00:06:15;39.15;35.66;45.56;;
66888;Laerm;67239;51.680;5.976;2023-02-14T00:08:42;61.11;36.71;79.03;;
66888;Laerm;67239;51.680;5.976;2023-02-14T00:11:12;59.96;35.35;80.60;;
66888;Laerm;67239;51.680;5.976;2023-02-14T00:13:40;38.96;35.36;43.94;;
66888;Laerm;67239;51.680;5.976;2023-02-14T00:16:27;53.68;35.35;73.26;;
66888;Laerm;67239;51.680;5.976;2023-02-14T00:18:54;57.45;35.39;74.48;;
66888;Laerm;67239;51.680;5.976;2023-02-14T00:21:35;38.54;34.87;43.14;;
66888;Laerm;67239;51.680;5.976;2023-02-14T00:24:27;58.40;34.75;77.62;;
66888;Laerm;67239;51.680;5.976;2023-02-14T00:26:54;39.25;34.86;49.14;;
66888;Laerm;67239;51.680;5.976;2023-02-14T00:29:29;37.47;34.54;46.07;;
66888;Laerm;67239;51.680;5.976;2023-02-14T00:31:57;57.56;34.51;80.04;;
66888;Laerm;67239;51.680;5.976;2023-02-14T00:34:25;60.82;34.81;82.64;;
66888;Laerm;67239;51.680;5.976;2023-02-14T00:36:52;37.67;34.66;44.40;;
66888;Laerm;67239;51.680;5.976;2023-02-14T00:39:19;37.79;34.52;45.57;;
66888;Laerm;67239;51.680;5.976;2023-02-14T00:41:46;38.35;35.45;45.96;;
66888;Laerm;67239;51.680;5.976;2023-02-14T00:44:15;40.00;36.48;47.65;;
66888;Laerm;67239;51.680;5.976;2023-02-14T00:46:44;38.51;35.37;50.48;;
66888;Laerm;67239;51.680;5.976;2023-02-14T00:49:11;37.41;34.54;45.22;;
66888;Laerm;67239;51.680;5.976;2023-02-14T00:51:38;38.01;35.15;42.24;;
66888;Laerm;67239;51.680;5.976;2023-02-14T00:54:05;39.66;35.84;48.42;;
66888;Laerm;67239;51.680;5.976;2023-02-14T00:56:32;38.58;35.70;43.68;;
66888;Laerm;67239;51.680;5.976;2023-02-14T00:59:00;38.25;34.79;46.44;;
66888;Laerm;67239;51.680;5.976;2023-02-14T01:01:27;37.81;34.83;45.45;;
66888;Laerm;67239;51.680;5.976;2023-02-14T01:03:55;37.45;34.19;43.78;;
66888;Laerm;67239;51.680;5.976;2023-02-14T01:06:22;38.10;34.87;44.08;;
66888;Laerm;67239;51.680;5.976;2023-02-14T01:08:49;37.77;34.46;47.62;;
66888;Laerm;67239;51.680;5.976;2023-02-14T01:11:20;60.25;35.34;77.70;;
66888;Laerm;67239;51.680;5.976;2023-02-14T01:13:49;38.97;35.24;45.49;;
66888;Laerm;67239;51.680;5.976;2023-02-14T01:16:20;37.99;34.81;45.03;;
66888;Laerm;67239;51.680;5.976;2023-02-14T01:18:48;37.81;34.87;47.82;;
66888;Laerm;67239;51.680;5.976;2023-02-14T01:21:29;38.22;34.56;50.08;;
66888;Laerm;67239;51.680;5.976;2023-02-14T01:24:01;37.38;34.05;45.59;;
66888;Laerm;67239;51.680;5.976;2023-02-14T01:26:28;37.61;34.92;43.65;;
66888;Laerm;67239;51.680;5.976;2023-02-14T01:28:56;37.79;34.98;45.06;;
66888;Laerm;67239;51.680;5.976;2023-02-14T01:31:27;37.95;34.59;44.80;;
66888;Laerm;67239;51.680;5.976;2023-02-14T01:33:56;37.66;34.42;44.55;;
66888;Laerm;67239;51.680;5.976;2023-02-14T01:36:32;38.69;35.34;46.67;;
66888;Laerm;67239;51.680;5.976;2023-02-14T01:39:04;38.66;35.66;47.51;;
66888;Laerm;67239;51.680;5.976;2023-02-14T01:41:35;37.83;34.39;43.91;;
66888;Laerm;67239;51.680;5.976;2023-02-14T01:47:04;37.49;34.96;41.20;;
66888;Laerm;67239;51.680;5.976;2023-02-14T01:49:43;38.36;35.03;42.38;;
66888;Laerm;67239;51.680;5.976;2023-02-14T01:52:25;38.55;35.67;42.62;;
66888;Laerm;67239;51.680;5.976;2023-02-14T01:55:00;37.99;35.54;44.82;;
66888;Laerm;67239;51.680;5.976;2023-02-14T01:57:41;38.04;35.04;43.17;;
66888;Laerm;67239;51.680;5.976;2023-02-14T02:00:10;38.11;34.31;44.64;;
66888;Laerm;67239;51.680;5.976;2023-02-14T02:03:00;37.41;34.78;41.57;;
66888;Laerm;67239;51.680;5.976;2023-02-14T02:05:28;38.01;34.76;46.51;;
66888;Laerm;67239;51.680;5.976;2023-02-14T02:07:59;38.24;34.73;44.06;;
66888;Laerm;67239;51.680;5.976;2023-02-14T02:10:27;38.66;34.34;44.94;;
66888;Laerm;67239;51.680;5.976;2023-02-14T02:13:00;38.21;35.33;47.03;;
66888;Laerm;67239;51.680;5.976;2023-02-14T02:15:31;39.10;35.64;47.81;;
66888;Laerm;67239;51.680;5.976;2023-02-14T02:18:18;60.78;35.80;79.77;;
66888;Laerm;67239;51.680;5.976;2023-02-14T02:24:43;59.75;35.89;79.81;;
66888;Laerm;67239;51.680;5.976;2023-02-14T02:27:56;39.72;36.03;47.26;;
66888;Laerm;67239;51.680;5.976;2023-02-14T02:33:57;38.52;34.66;44.01;;
66888;Laerm;67239;51.680;5.976;2023-02-14T02:39:33;37.83;35.16;48.66;;
66888;Laerm;67239;51.680;5.976;2023-02-14T02:42:33;37.89;34.63;47.01;;
66888;Laerm;67239;51.680;5.976;2023-02-14T02:45:12;39.18;35.63;49.48;;
66888;Laerm;67239;51.680;5.976;2023-02-14T02:47:56;39.11;36.31;48.28;;
66888;Laerm;67239;51.680;5.976;2023-02-14T02:50:40;38.54;35.95;42.82;;
66888;Laerm;67239;51.680;5.976;2023-02-14T02:53:46;38.90;35.79;46.85;;
66888;Laerm;67239;51.680;5.976;2023-02-14T02:56:29;38.81;35.16;49.80;;
66888;Laerm;67239;51.680;5.976;2023-02-14T02:59:34;39.95;36.21;47.72;;
66888;Laerm;67239;51.680;5.976;2023-02-14T03:02:19;59.17;35.55;79.91;;
66888;Laerm;67239;51.680;5.976;2023-02-14T03:04:57;38.60;35.62;47.63;;
66888;Laerm;67239;51.680;5.976;2023-02-14T03:07:36;57.62;35.33;76.34;;
66888;Laerm;67239;51.680;5.976;2023-02-14T03:10:23;62.63;35.99;82.47;;
66888;Laerm;67239;51.680;5.976;2023-02-14T03:13:29;38.79;36.03;48.20;;
66888;Laerm;67239;51.680;5.976;2023-02-14T03:16:25;39.40;35.02;48.54;;
66888;Laerm;67239;51.680;5.976;2023-02-14T03:21:59;40.49;36.67;51.42;;
66888;Laerm;67239;51.680;5.976;2023-02-14T03:24:52;40.02;37.03;49.76;;
66888;Laerm;67239;51.680;5.976;2023-02-14T03:33:43;41.01;37.47;46.68;;
66888;Laerm;67239;51.680;5.976;2023-02-14T03:36:22;40.20;35.88;47.38;;
66888;Laerm;67239;51.680;5.976;2023-02-14T03:39:06;41.21;35.79;52.09;;
66888;Laerm;67239;51.680;5.976;2023-02-14T03:41:49;61.98;37.58;82.21;;
66888;Laerm;67239;51.680;5.976;2023-02-14T03:44:22;40.64;36.92;51.64;;
66888;Laerm;67239;51.680;5.976;2023-02-14T03:47:01;63.24;37.99;81.65;;
66888;Laerm;67239;51.680;5.976;2023-02-14T03:49:37;42.57;37.92;51.64;;
66888;Laerm;67239;51.680;5.976;2023-02-14T03:52:08;59.33;38.16;76.84;;
66888;Laerm;67239;51.680;5.976;2023-02-14T03:54:36;61.23;37.70;76.42;;
66888;Laerm;67239;51.680;5.976;2023-02-14T03:57:24;60.66;37.56;78.43;;
66888;Laerm;67239;51.680;5.976;2023-02-14T03:59:54;41.05;37.62;47.38;;
66888;Laerm;67239;51.680;5.976;2023-02-14T04:02:34;41.48;38.26;51.73;;
66888;Laerm;67239;51.680;5.976;2023-02-14T04:05:11;60.15;37.39;80.33;;
66888;Laerm;67239;51.680;5.976;2023-02-14T04:07:54;66.00;38.52;85.72;;
66888;Laerm;67239;51.680;5.976;2023-02-14T04:10:23;61.84;38.33;79.95;;
66888;Laerm;67239;51.680;5.976;2023-02-14T04:12:52;54.83;39.00;75.71;;
66888;Laerm;67239;51.680;5.976;2023-02-14T04:15:19;62.37;38.75;80.33;;
66888;Laerm;67239;51.680;5.976;2023-02-14T04:17:46;60.90;39.01;77.29;;
66888;Laerm;67239;51.680;5.976;2023-02-14T04:20:31;62.35;40.04;80.64;;
66888;Laerm;67239;51.680;5.976;2023-02-14T04:22:59;59.98;40.41;78.45;;
66888;Laerm;67239;51.680;5.976;2023-02-14T04:25:30;61.87;40.45;76.65;;
66888;Laerm;67239;51.680;5.976;2023-02-14T04:27:57;54.09;41.23;69.50;;
66888;Laerm;67239;51.680;5.976;2023-02-14T04:30:24;64.55;40.09;79.55;;
66888;Laerm;67239;51.680;5.976;2023-02-14T04:32:51;62.54;40.50;78.13;;
66888;Laerm;67239;51.680;5.976;2023-02-14T04:35:18;57.61;42.00;74.52;;
66888;Laerm;67239;51.680;5.976;2023-02-14T04:37:45;63.02;43.02;77.26;;
66888;Laerm;67239;51.680;5.976;2023-02-14T04:40:12;62.77;42.07;82.17;;
66888;Laerm;67239;51.680;5.976;2023-02-14T04:42:44;65.43;44.98;84.15;;
66888;Laerm;67239;51.680;5.976;2023-02-14T04:45:12;67.07;43.26;81.85;;
66888;Laerm;67239;51.680;5.976;2023-02-14T04:47:39;66.49;42.83;83.01;;
66888;Laerm;67239;51.680;5.976;2023-02-14T04:50:07;68.40;45.06;80.76;;
66888;Laerm;67239;51.680;5.976;2023-02-14T04:52:34;64.97;42.99;81.40;;
66888;Laerm;67239;51.680;5.976;2023-02-14T04:55:01;65.91;42.81;81.47;;
66888;Laerm;67239;51.680;5.976;2023-02-14T04:57:28;61.93;42.35;79.02;;
66888;Laerm;67239;51.680;5.976;2023-02-14T04:59:55;68.47;43.07;83.47;;
66888;Laerm;67239;51.680;5.976;2023-02-14T05:02:22;67.94;44.65;83.77;;
66888;Laerm;67239;51.680;5.976;2023-02-14T05:04:50;67.50;47.11;83.11;;
66888;Laerm;67239;51.680;5.976;2023-02-14T05:07:17;72.15;50.36;84.77;;
66888;Laerm;67239;51.680;5.976;2023-02-14T05:09:43;68.31;45.32;80.88;;
66888;Laerm;67239;51.680;5.976;2023-02-14T05:12:10;67.75;44.98;80.26;;
66888;Laerm;67239;51.680;5.976;2023-02-14T05:14:37;66.96;44.88;83.49;;
66888;Laerm;67239;51.680;5.976;2023-02-14T05:17:04;67.07;44.07;82.85;;
66888;Laerm;67239;51.680;5.976;2023-02-14T05:19:31;64.02;43.70;82.07;;
66888;Laerm;67239;51.680;5.976;2023-02-14T05:21:58;68.51;48.41;80.52;;
66888;Laerm;67239;51.680;5.976;2023-02-14T05:24:25;65.42;44.64;77.77;;
66888;Laerm;67239;51.680;5.976;2023-02-14T05:26:52;69.16;47.83;84.72;;
66888;Laerm;67239;51.680;5.976;2023-02-14T05:29:19;66.72;47.60;79.03;;
66888;Laerm;67239;51.680;5.976;2023-02-14T05:31:47;68.18;47.04;79.96;;
66888;Laerm;67239;51.680;5.976;2023-02-14T05:34:14;62.55;45.79;79.44;;
66888;Laerm;67239;51.680;5.976;2023-02-14T05:36:41;65.17;44.62;79.00;;
66888;Laerm;67239;51.680;5.976;2023-02-14T05:39:08;61.44;44.76;79.67;;
66888;Laerm;67239;51.680;5.976;2023-02-14T05:41:35;67.00;45.82;82.95;;
66888;Laerm;67239;51.680;5.976;2023-02-14T05:44:03;67.71;47.78;84.11;;
66888;Laerm;67239;51.680;5.976;2023-02-14T05:46:30;66.16;48.34;76.49;;
66888;Laerm;67239;51.680;5.976;2023-02-14T05:48:57;63.12;49.13;79.02;;
66888;Laerm;67239;51.680;5.976;2023-02-14T05:51:24;69.18;47.89;87.62;;
66888;Laerm;67239;51.680;5.976;2023-02-14T05:53:51;70.49;49.68;83.40;;
66888;Laerm;67239;51.680;5.976;2023-02-14T05:56:18;69.04;51.07;81.71;;
66888;Laerm;67239;51.680;5.976;2023-02-14T05:58:45;70.90;49.33;84.05;;
66888;Laerm;67239;51.680;5.976;2023-02-14T06:01:12;71.38;50.05;83.25;;
66888;Laerm;67239;51.680;5.976;2023-02-14T06:03:39;70.03;45.87;83.91;;
66888;Laerm;67239;51.680;5.976;2023-02-14T06:06:06;69.66;45.83;81.28;;
66888;Laerm;67239;51.680;5.976;2023-02-14T06:08:34;67.12;48.21;81.18;;
66888;Laerm;67239;51.680;5.976;2023-02-14T06:11:01;68.76;49.32;83.05;;
66888;Laerm;67239;51.680;5.976;2023-02-14T06:13:28;70.28;49.08;81.30;;
66888;Laerm;67239;51.680;5.976;2023-02-14T06:15:55;69.14;49.41;82.36;;
66888;Laerm;67239;51.680;5.976;2023-02-14T06:18:22;69.89;47.45;80.69;;
66888;Laerm;67239;51.680;5.976;2023-02-14T06:20:53;65.41;46.17;78.28;;
66888;Laerm;67239;51.680;5.976;2023-02-14T06:23:21;71.46;53.64;81.81;;
66888;Laerm;67239;51.680;5.976;2023-02-14T06:25:48;67.49;47.57;80.42;;
66888;Laerm;67239;51.680;5.976;2023-02-14T06:28:15;69.00;49.23;81.41;;
66888;Laerm;67239;51.680;5.976;2023-02-14T06:30:42;70.06;47.69;84.00;;
66888;Laerm;67239;51.680;5.976;2023-02-14T06:33:09;68.84;48.83;81.04;;
66888;Laerm;67239;51.680;5.976;2023-02-14T06:35:36;68.78;47.82;84.56;;
66888;Laerm;67239;51.680;5.976;2023-02-14T06:38:03;69.78;48.14;81.59;;
66888;Laerm;67239;51.680;5.976;2023-02-14T06:40:30;71.11;53.24;84.13;;
66888;Laerm;67239;51.680;5.976;2023-02-14T06:42:57;69.73;47.34;81.92;;
66888;Laerm;67239;51.680;5.976;2023-02-14T06:45:25;72.02;46.53;83.50;;
66888;Laerm;67239;51.680;5.976;2023-02-14T06:47:52;69.78;46.84;82.20;;
66888;Laerm;67239;51.680;5.976;2023-02-14T06:50:19;69.50;51.67;78.43;;
66888;Laerm;67239;51.680;5.976;2023-02-14T06:52:46;66.72;45.80;83.59;;
66888;Laerm;67239;51.680;5.976;2023-02-14T06:55:14;70.65;48.89;83.42;;
66888;Laerm;67239;51.680;5.976;2023-02-14T06:57:41;70.38;47.87;80.22;;
66888;Laerm;67239;51.680;5.976;2023-02-14T07:00:11;70.85;50.80;81.60;;
66888;Laerm;67239;51.680;5.976;2023-02-14T07:02:40;67.88;48.18;79.68;;
66888;Laerm;67239;51.680;5.976;2023-02-14T07:05:08;72.13;51.67;83.15;;
66888;Laerm;67239;51.680;5.976;2023-02-14T07:07:35;69.18;47.62;83.04;;
66888;Laerm;67239;51.680;5.976;2023-02-14T07:10:02;70.69;52.50;81.90;;
66888;Laerm;67239;51.680;5.976;2023-02-14T07:12:30;69.93;48.55;85.50;;
66888;Laerm;67239;51.680;5.976;2023-02-14T07:14:57;67.62;47.36;78.58;;
66888;Laerm;67239;51.680;5.976;2023-02-14T07:17:24;71.46;48.48;87.94;;
66888;Laerm;67239;51.680;5.976;2023-02-14T07:19:51;71.39;45.81;85.46;;
66888;Laerm;67239;51.680;5.976;2023-02-14T07:22:18;70.28;48.24;90.29;;
66888;Laerm;67239;51.680;5.976;2023-02-14T07:24:45;68.99;47.88;82.17;;
66888;Laerm;67239;51.680;5.976;2023-02-14T07:27:12;71.28;53.12;83.24;;
66888;Laerm;67239;51.680;5.976;2023-02-14T07:29:39;69.74;50.78;81.94;;
66888;Laerm;67239;51.680;5.976;2023-02-14T07:32:06;70.95;47.98;82.56;;
66888;Laerm;67239;51.680;5.976;2023-02-14T07:34:33;70.65;49.48;84.96;;
66888;Laerm;67239;51.680;5.976;2023-02-14T07:37:00;71.38;52.25;82.06;;
66888;Laerm;67239;51.680;5.976;2023-02-14T07:39:28;69.41;46.70;82.94;;
66888;Laerm;67239;51.680;5.976;2023-02-14T07:41:55;69.05;48.89;79.97;;
66888;Laerm;67239;51.680;5.976;2023-02-14T07:44:25;68.91;49.05;81.69;;
66888;Laerm;67239;51.680;5.976;2023-02-14T07:46:52;64.72;45.34;79.69;;
66888;Laerm;67239;51.680;5.976;2023-02-14T07:49:19;71.64;47.42;83.32;;
66888;Laerm;67239;51.680;5.976;2023-02-14T07:51:46;69.68;49.93;82.23;;
66888;Laerm;67239;51.680;5.976;2023-02-14T07:54:13;68.81;49.66;79.87;;
66888;Laerm;67239;51.680;5.976;2023-02-14T07:56:40;67.91;46.51;83.57;;
66888;Laerm;67239;51.680;5.976;2023-02-14T07:59:07;67.89;47.39;79.54;;
66888;Laerm;67239;51.680;5.976;2023-02-14T08:01:34;66.02;45.66;83.42;;
66888;Laerm;67239;51.680;5.976;2023-02-14T08:04:01;68.59;47.20;80.73;;
66888;Laerm;67239;51.680;5.976;2023-02-14T08:06:28;68.32;46.39;78.42;;
66888;Laerm;67239;51.680;5.976;2023-02-14T08:08:55;69.79;45.68;83.45;;
66888;Laerm;67239;51.680;5.976;2023-02-14T08:11:22;68.07;47.43;83.28;;
66888;Laerm;67239;51.680;5.976;2023-02-14T08:14:08;71.27;50.41;84.94;;
66888;Laerm;67239;51.680;5.976;2023-02-14T08:16:35;68.23;47.64;82.83;;
66888;Laerm;67239;51.680;5.976;2023-02-14T08:19:04;70.02;49.46;82.00;;
66888;Laerm;67239;51.680;5.976;2023-02-14T08:21:31;70.24;52.51;82.54;;
66888;Laerm;67239;51.680;5.976;2023-02-14T08:23:58;67.29;47.16;79.53;;
66888;Laerm;67239;51.680;5.976;2023-02-14T08:26:27;67.93;47.23;82.55;;
66888;Laerm;67239;51.680;5.976;2023-02-14T08:28:54;69.03;48.47;80.73;;
66888;Laerm;67239;51.680;5.976;2023-02-14T08:31:28;71.27;49.77;85.63;;
66888;Laerm;67239;51.680;5.976;2023-02-14T08:34:06;73.22;51.59;90.30;;
66888;Laerm;67239;51.680;5.976;2023-02-14T08:36:34;69.60;48.36;82.88;;
66888;Laerm;67239;51.680;5.976;2023-02-14T08:39:03;67.48;45.02;81.49;;
66888;Laerm;67239;51.680;5.976;2023-02-14T08:41:31;67.24;46.95;82.02;;
66888;Laerm;67239;51.680;5.976;2023-02-14T08:43:58;70.15;47.51;84.42;;
66888;Laerm;67239;51.680;5.976;2023-02-14T08:46:25;67.63;46.16;81.83;;
66888;Laerm;67239;51.680;5.976;2023-02-14T08:48:53;68.53;47.71;84.13;;
66888;Laerm;67239;51.680;5.976;2023-02-14T08:51:21;70.60;47.93;83.24;;
66888;Laerm;67239;51.680;5.976;2023-02-14T08:53:51;69.80;46.78;82.67;;
66888;Laerm;67239;51.680;5.976;2023-02-14T08:56:19;68.52;46.27;80.15;;
66888;Laerm;67239;51.680;5.976;2023-02-14T08:58:51;69.58;45.67;82.10;;
66888;Laerm;67239;51.680;5.976;2023-02-14T09:01:19;68.34;44.98;83.56;;
66888;Laerm;67239;51.680;5.976;2023-02-14T09:03:46;67.54;44.88;83.06;;
66888;Laerm;67239;51.680;5.976;2023-02-14T09:06:15;68.57;45.70;81.27;;
66888;Laerm;67239;51.680;5.976;2023-02-14T09:08:43;69.50;48.28;83.06;;
66888;Laerm;67239;51.680;5.976;2023-02-14T09:11:18;71.01;43.53;84.79;;
66888;Laerm;67239;51.680;5.976;2023-02-14T09:13:50;68.43;44.52;81.32;;
66888;Laerm;67239;51.680;5.976;2023-02-14T09:16:21;68.50;43.37;83.29;;
66888;Laerm;67239;51.680;5.976;2023-02-14T09:18:51;70.51;48.28;82.04;;
66888;Laerm;67239;51.680;5.976;2023-02-14T09:21:23;67.99;44.40;79.59;;
66888;Laerm;67239;51.680;5.976;2023-02-14T09:23:51;70.02;47.20;81.86;;
66888;Laerm;67239;51.680;5.976;2023-02-14T09:26:19;69.85;42.43;84.73;;
66888;Laerm;67239;51.680;5.976;2023-02-14T09:28:47;69.45;44.65;81.85;;
66888;Laerm;67239;51.680;5.976;2023-02-14T09:31:19;69.75;50.33;80.10;;
66888;Laerm;67239;51.680;5.976;2023-02-14T09:33:48;64.04;43.67;77.83;;
66888;Laerm;67239;51.680;5.976;2023-02-14T09:36:34;68.99;42.88;83.18;;
66888;Laerm;67239;51.680;5.976;2023-02-14T09:39:01;70.08;51.20;82.53;;
66888;Laerm;67239;51.680;5.976;2023-02-14T09:44:05;68.57;43.52;84.62;;
66888;Laerm;67239;51.680;5.976;2023-02-14T09:46:44;69.25;45.90;82.20;;
66888;Laerm;67239;51.680;5.976;2023-02-14T09:49:30;69.40;44.26;84.31;;
66888;Laerm;67239;51.680;5.976;2023-02-14T09:52:02;70.43;43.88;84.06;;
66888;Laerm;67239;51.680;5.976;2023-02-14T09:54:34;67.96;41.57;80.74;;
66888;Laerm;67239;51.680;5.976;2023-02-14T10:03:30;68.64;41.22;84.54;;
66888;Laerm;67239;51.680;5.976;2023-02-14T10:09:52;70.15;44.04;82.49;;
66888;Laerm;67239;51.680;5.976;2023-02-14T10:12:32;68.10;43.85;79.79;;
66888;Laerm;67239;51.680;5.976;2023-02-14T10:15:14;66.27;46.29;79.28;;
66888;Laerm;67239;51.680;5.976;2023-02-14T10:17:51;68.62;47.00;79.62;;
66888;Laerm;67239;51.680;5.976;2023-02-14T10:20:38;67.80;45.53;82.75;;
66888;Laerm;67239;51.680;5.976;2023-02-14T10:26:06;69.25;48.12;84.06;;
66888;Laerm;67239;51.680;5.976;2023-02-14T10:28:48;67.65;45.79;81.47;;
66888;Laerm;67239;51.680;5.976;2023-02-14T10:31:27;67.94;45.63;83.23;;
66888;Laerm;67239;51.680;5.976;2023-02-14T10:34:23;67.65;45.02;81.38;;
66888;Laerm;67239;51.680;5.976;2023-02-14T10:40:16;66.90;44.17;83.63;;
66888;Laerm;67239;51.680;5.976;2023-02-14T10:43:35;72.05;43.00;85.57;;
66888;Laerm;67239;51.680;5.976;2023-02-14T10:46:35;66.85;42.28;81.57;;
66888;Laerm;67239;51.680;5.976;2023-02-14T10:49:36;70.09;42.49;83.28;;
66888;Laerm;67239;51.680;5.976;2023-02-14T10:58:02;70.07;45.58;83.94;;
66888;Laerm;67239;51.680;5.976;2023-02-14T11:00:49;66.88;44.26;78.41;;
66888;Laerm;67239;51.680;5.976;2023-02-14T11:03:17;69.53;46.44;82.57;;
66888;Laerm;67239;51.680;5.976;2023-02-14T11:05:47;69.13;43.67;82.90;;
66888;Laerm;67239;51.680;5.976;2023-02-14T11:13:43;64.94;43.34;76.68;;
66888;Laerm;67239;51.680;5.976;2023-02-14T11:16:31;68.51;46.06;84.11;;
66888;Laerm;67239;51.680;5.976;2023-02-14T11:19:09;68.30;47.07;79.86;;
66888;Laerm;67239;51.680;5.976;2023-02-14T11:21:47;69.12;44.91;82.43;;
66888;Laerm;67239;51.680;5.976;2023-02-14T11:24:37;68.10;45.13;81.30;;
66888;Laerm;67239;51.680;5.976;2023-02-14T11:32:13;69.71;46.27;86.11;;
66888;Laerm;67239;51.680;5.976;2023-02-14T11:34:54;68.43;44.08;80.40;;
66888;Laerm;67239;51.680;5.976;2023-02-14T11:37:30;68.20;43.93;82.19;;
66888;Laerm;67239;51.680;5.976;2023-02-14T11:40:00;68.01;46.81;78.68;;
66888;Laerm;67239;51.680;5.976;2023-02-14T11:42:41;69.16;47.89;82.32;;
66888;Laerm;67239;51.680;5.976;2023-02-14T11:45:35;67.94;40.12;79.90;;
66888;Laerm;67239;51.680;5.976;2023-02-14T11:48:21;68.14;39.64;80.75;;
66888;Laerm;67239;51.680;5.976;2023-02-14T11:51:10;71.19;39.82;87.43;;
66888;Laerm;67239;51.680;5.976;2023-02-14T11:53:50;69.73;39.23;81.51;;
66888;Laerm;67239;51.680;5.976;2023-02-14T11:56:20;67.79;38.67;79.44;;
66888;Laerm;67239;51.680;5.976;2023-02-14T11:58:57;70.36;42.45;83.63;;
66888;Laerm;67239;51.680;5.976;2023-02-14T12:01:31;68.38;42.53;80.04;;
66888;Laerm;67239;51.680;5.976;2023-02-14T12:04:05;64.84;40.01;79.83;;
66888;Laerm;67239;51.680;5.976;2023-02-14T12:06:35;68.42;42.57;81.36;;
66888;Laerm;67239;51.680;5.976;2023-02-14T12:11:58;65.57;39.94;80.12;;
66888;Laerm;67239;51.680;5.976;2023-02-14T12:14:33;68.46;42.56;84.08;;
66888;Laerm;67239;51.680;5.976;2023-02-14T12:20:07;68.46;43.96;79.60;;
66888;Laerm;67239;51.680;5.976;2023-02-14T12:22:55;68.67;42.18;83.86;;
66888;Laerm;67239;51.680;5.976;2023-02-14T12:25:41;68.24;43.66;84.35;;
66888;Laerm;67239;51.680;5.976;2023-02-14T12:28:21;69.93;41.90;81.28;;
66888;Laerm;67239;51.680;5.976;2023-02-14T12:30:50;68.68;46.77;79.31;;
66888;Laerm;67239;51.680;5.976;2023-02-14T12:33:20;67.91;41.72;82.66;;
66888;Laerm;67239;51.680;5.976;2023-02-14T12:36:03;65.56;42.60;77.71;;
66888;Laerm;67239;51.680;5.976;2023-02-14T12:44:47;70.78;44.90;83.63;;
66888;Laerm;67239;51.680;5.976;2023-02-14T12:50:25;70.44;41.43;82.20;;
66888;Laerm;67239;51.680;5.976;2023-02-14T12:53:23;69.51;42.29;84.45;;
66888;Laerm;67239;51.680;5.976;2023-02-14T13:04:21;70.79;43.44;83.61;;
66888;Laerm;67239;51.680;5.976;2023-02-14T13:10:49;70.11;51.02;82.07;;
66888;Laerm;67239;51.680;5.976;2023-02-14T13:16:35;66.42;43.29;80.07;;
66888;Laerm;67239;51.680;5.976;2023-02-14T13:21:57;69.72;48.18;82.08;;
66888;Laerm;67239;51.680;5.976;2023-02-14T13:24:46;68.27;44.64;83.77;;
66888;Laerm;67239;51.680;5.976;2023-02-14T13:27:24;68.45;46.22;83.60;;
66888;Laerm;67239;51.680;5.976;2023-02-14T13:29:59;69.49;47.18;81.31;;
66888;Laerm;67239;51.680;5.976;2023-02-14T13:32:37;71.45;51.79;81.93;;
66888;Laerm;67239;51.680;5.976;2023-02-14T13:35:07;69.36;48.93;82.93;;
66888;Laerm;67239;51.680;5.976;2023-02-14T13:37:50;71.46;49.05;85.39;;
66888;Laerm;67239;51.680;5.976;2023-02-14T13:40:25;66.60;43.97;82.09;;
66888;Laerm;67239;51.680;5.976;2023-02-14T13:42:59;67.86;43.34;78.69;;
66888;Laerm;67239;51.680;5.976;2023-02-14T13:48:21;70.76;48.53;81.81;;
66888;Laerm;67239;51.680;5.976;2023-02-14T13:53:47;66.30;45.94;81.53;;
66888;Laerm;67239;51.680;5.976;2023-02-14T13:58:47;69.56;49.54;82.64;;
66888;Laerm;67239;51.680;5.976;2023-02-14T14:01:33;66.81;45.97;84.24;;
66888;Laerm;67239;51.680;5.976;2023-02-14T14:17:38;69.51;42.38;81.69;;
66888;Laerm;67239;51.680;5.976;2023-02-14T14:22:48;69.16;45.93;84.46;;
66888;Laerm;67239;51.680;5.976;2023-02-14T14:25:43;69.36;41.54;82.92;;
66888;Laerm;67239;51.680;5.976;2023-02-14T14:28:18;70.69;46.25;83.14;;
66888;Laerm;67239;51.680;5.976;2023-02-14T14:30:47;70.25;44.73;83.15;;
66888;Laerm;67239;51.680;5.976;2023-02-14T14:35:57;71.13;43.46;82.05;;
66888;Laerm;67239;51.680;5.976;2023-02-14T14:38:30;66.27;40.87;78.30;;
66888;Laerm;67239;51.680;5.976;2023-02-14T14:41:00;70.94;43.35;85.01;;
66888;Laerm;67239;51.680;5.976;2023-02-14T14:43:34;70.35;47.77;82.80;;
66888;Laerm;67239;51.680;5.976;2023-02-14T14:46:09;70.79;50.45;81.62;;
66888;Laerm;67239;51.680;5.976;2023-02-14T14:48:50;69.84;45.93;81.91;;
66888;Laerm;67239;51.680;5.976;2023-02-14T14:51:34;68.15;44.09;81.63;;
66888;Laerm;67239;51.680;5.976;2023-02-14T14:54:06;69.51;43.92;78.35;;
66888;Laerm;67239;51.680;5.976;2023-02-14T14:56:43;69.30;45.91;82.65;;
66888;Laerm;67239;51.680;5.976;2023-02-14T14:59:31;70.72;48.81;84.56;;
66888;Laerm;67239;51.680;5.976;2023-02-14T15:02:02;69.48;46.36;84.29;;
66888;Laerm;67239;51.680;5.976;2023-02-14T15:04:32;71.77;48.79;81.61;;
66888;Laerm;67239;51.680;5.976;2023-02-14T15:07:33;70.54;44.75;83.71;;
66888;Laerm;67239;51.680;5.976;2023-02-14T15:10:01;69.46;47.35;82.38;;
66888;Laerm;67239;51.680;5.976;2023-02-14T15:12:28;69.60;41.67;82.67;;
66888;Laerm;67239;51.680;5.976;2023-02-14T15:15:16;71.07;46.49;84.29;;
66888;Laerm;67239;51.680;5.976;2023-02-14T15:17:45;69.23;46.91;78.92;;
66888;Laerm;67239;51.680;5.976;2023-02-14T15:20:19;70.30;51.34;83.16;;
66888;Laerm;67239;51.680;5.976;2023-02-14T15:22:50;71.86;51.01;82.31;;
66888;Laerm;67239;51.680;5.976;2023-02-14T15:25:29;68.08;46.04;85.35;;
66888;Laerm;67239;51.680;5.976;2023-02-14T15:27:57;69.04;43.95;81.44;;
66888;Laerm;67239;51.680;5.976;2023-02-14T15:30:31;68.79;48.65;78.94;;
66888;Laerm;67239;51.680;5.976;2023-02-14T15:33:06;71.31;49.21;81.37;;
66888;Laerm;67239;51.680;5.976;2023-02-14T15:35:38;70.13;48.12;79.24;;
66888;Laerm;67239;51.680;5.976;2023-02-14T15:38:10;71.06;44.14;81.45;;
66888;Laerm;67239;51.680;5.976;2023-02-14T15:40:42;68.73;44.07;81.14;;
66888;Laerm;67239;51.680;5.976;2023-02-14T15:45:54;79.53;48.18;102.97;;
66888;Laerm;67239;51.680;5.976;2023-02-14T15:48:31;71.88;55.21;82.96;;
66888;Laerm;67239;51.680;5.976;2023-02-14T15:51:01;68.93;47.14;85.37;;
66888;Laerm;67239;51.680;5.976;2023-02-14T15:53:43;71.03;43.75;81.55;;
66888;Laerm;67239;51.680;5.976;2023-02-14T15:59:19;71.45;47.75;83.14;;
66888;Laerm;67239;51.680;5.976;2023-02-14T16:01:56;68.43;44.13;80.78;;
66888;Laerm;67239;51.680;5.976;2023-02-14T16:04:29;70.04;52.38;80.59;;
66888;Laerm;67239;51.680;5.976;2023-02-14T16:09:39;70.38;51.04;81.48;;
66888;Laerm;67239;51.680;5.976;2023-02-14T16:12:35;74.21;43.85;93.31;;
66888;Laerm;67239;51.680;5.976;2023-02-14T16:15:23;71.15;48.05;80.96;;
66888;Laerm;67239;51.680;5.976;2023-02-14T16:17:51;69.11;43.34;80.32;;
66888;Laerm;67239;51.680;5.976;2023-02-14T16:20:40;76.57;44.40;99.62;;
66888;Laerm;67239;51.680;5.976;2023-02-14T16:23:27;71.13;42.50;83.67;;
66888;Laerm;67239;51.680;5.976;2023-02-14T16:25:54;68.77;48.31;79.78;;